Terminal Aerodrome Forecast
Issued by NWS

Home | Current Version | Previous Version | Text Only | Print | Product List | Glossary On
Versions: 1 2 3 4 5 6 7 8 9 10 11 12 13 14 15 16
000
FTUS41 KGYX 270520
TAFAUG
TAF
KAUG 270520Z 2706/2806 35009KT P6SM -SHRA OVC035
     FM271300 35013G20KT P6SM -SHRA OVC025
     FM272000 36016G24KT P6SM -RA OVC050
     FM280000 35013KT P6SM BKN050=

USA.gov is the U.S. government's official web portal to all federal, state and local government web resources and services.